Tuttle, Idaho
Current Conditions -  °F | °C
As of 6:53 PM on Sunday 25 Jan 2015 (Local Time) from KJER Reporting Station
Clear Clear  
Wind Chill: 23°   Ceiling: Unl
Heat Index: 34°   Visibility: 10mi
Dew Point: 30°   Wind: 18mph
Humidity: 85%   Direction: 40°NE
Pressure: 30.39"   Gusts: NA
Location:  43.0634°N, 114.867°W
Report Text: KJER 260153Z AUTO 04016KT 10SM CLR 01/M01 A3039 RMK AO2 SLP318 T00111011
Loading
Personal Weather Stations






























Interactive Weather Map New forecast layout! Learn more

10-Day Weather Forecast

Advertisements
Track Severe Weather on mobile